sensor_id;sensor_type;location;lat;lon;timestamp;pressure;altitude;pressure_sealevel;temperature
19666;BMP180;9980;51.020;7.772;2024-01-30T00:00:34;98706.00;;;6.30
19666;BMP180;9980;51.020;7.772;2024-01-30T00:03:01;98686.00;;;6.30
19666;BMP180;9980;51.020;7.772;2024-01-30T00:05:28;98708.00;;;6.20
19666;BMP180;9980;51.020;7.772;2024-01-30T00:07:55;98698.00;;;6.20
19666;BMP180;9980;51.020;7.772;2024-01-30T00:10:22;98692.00;;;6.20
19666;BMP180;9980;51.020;7.772;2024-01-30T00:12:49;98696.00;;;6.20
19666;BMP180;9980;51.020;7.772;2024-01-30T00:15:16;98691.00;;;6.20
19666;BMP180;9980;51.020;7.772;2024-01-30T00:17:43;98691.00;;;6.20
19666;BMP180;9980;51.020;7.772;2024-01-30T00:20:10;98695.00;;;6.20
19666;BMP180;9980;51.020;7.772;2024-01-30T00:22:37;98688.00;;;6.20
19666;BMP180;9980;51.020;7.772;2024-01-30T00:25:05;98701.00;;;6.20
19666;BMP180;9980;51.020;7.772;2024-01-30T00:27:31;98688.00;;;6.10
19666;BMP180;9980;51.020;7.772;2024-01-30T00:29:58;98688.00;;;6.10
19666;BMP180;9980;51.020;7.772;2024-01-30T00:32:25;98696.00;;;6.10
19666;BMP180;9980;51.020;7.772;2024-01-30T00:34:52;98694.00;;;6.10
19666;BMP180;9980;51.020;7.772;2024-01-30T00:37:19;98703.00;;;6.10
19666;BMP180;9980;51.020;7.772;2024-01-30T00:39:46;98699.00;;;6.10
19666;BMP180;9980;51.020;7.772;2024-01-30T00:42:13;98692.00;;;6.00
19666;BMP180;9980;51.020;7.772;2024-01-30T00:44:40;98697.00;;;6.00
19666;BMP180;9980;51.020;7.772;2024-01-30T00:47:07;98692.00;;;6.00
19666;BMP180;9980;51.020;7.772;2024-01-30T00:49:34;98689.00;;;6.00
19666;BMP180;9980;51.020;7.772;2024-01-30T00:52:02;98697.00;;;6.00
19666;BMP180;9980;51.020;7.772;2024-01-30T00:54:29;98679.00;;;6.00
19666;BMP180;9980;51.020;7.772;2024-01-30T00:56:56;98688.00;;;5.90
19666;BMP180;9980;51.020;7.772;2024-01-30T00:59:23;98686.00;;;5.90
19666;BMP180;9980;51.020;7.772;2024-01-30T01:01:50;98687.00;;;5.90
19666;BMP180;9980;51.020;7.772;2024-01-30T01:04:18;98684.00;;;5.90
19666;BMP180;9980;51.020;7.772;2024-01-30T01:06:45;98670.00;;;5.90
19666;BMP180;9980;51.020;7.772;2024-01-30T01:09:12;98682.00;;;5.90
19666;BMP180;9980;51.020;7.772;2024-01-30T01:11:39;98680.00;;;5.90
19666;BMP180;9980;51.020;7.772;2024-01-30T01:14:06;98678.00;;;5.90
19666;BMP180;9980;51.020;7.772;2024-01-30T01:16:34;98678.00;;;5.90
19666;BMP180;9980;51.020;7.772;2024-01-30T01:19:00;98676.00;;;5.80
19666;BMP180;9980;51.020;7.772;2024-01-30T01:21:28;98689.00;;;5.80
19666;BMP180;9980;51.020;7.772;2024-01-30T01:23:55;98678.00;;;5.80
19666;BMP180;9980;51.020;7.772;2024-01-30T01:26:23;98683.00;;;5.80
19666;BMP180;9980;51.020;7.772;2024-01-30T01:28:50;98665.00;;;5.80
19666;BMP180;9980;51.020;7.772;2024-01-30T01:31:17;98672.00;;;5.80
19666;BMP180;9980;51.020;7.772;2024-01-30T01:33:44;98679.00;;;5.80
19666;BMP180;9980;51.020;7.772;2024-01-30T01:36:13;98672.00;;;5.80
19666;BMP180;9980;51.020;7.772;2024-01-30T01:38:40;98678.00;;;5.80
19666;BMP180;9980;51.020;7.772;2024-01-30T01:41:07;98675.00;;;5.70
19666;BMP180;9980;51.020;7.772;2024-01-30T01:43:34;98672.00;;;5.70
19666;BMP180;9980;51.020;7.772;2024-01-30T01:46:01;98689.00;;;5.70
19666;BMP180;9980;51.020;7.772;2024-01-30T01:48:29;98687.00;;;5.70
19666;BMP180;9980;51.020;7.772;2024-01-30T01:50:57;98672.00;;;5.70
19666;BMP180;9980;51.020;7.772;2024-01-30T01:53:25;98670.00;;;5.70
19666;BMP180;9980;51.020;7.772;2024-01-30T01:55:54;98680.00;;;5.60
19666;BMP180;9980;51.020;7.772;2024-01-30T01:58:22;98677.00;;;5.60
19666;BMP180;9980;51.020;7.772;2024-01-30T02:00:51;98671.00;;;5.60
19666;BMP180;9980;51.020;7.772;2024-01-30T02:03:18;98691.00;;;5.60
19666;BMP180;9980;51.020;7.772;2024-01-30T02:05:50;98702.00;;;5.60
19666;BMP180;9980;51.020;7.772;2024-01-30T02:08:17;98678.00;;;5.60
19666;BMP180;9980;51.020;7.772;2024-01-30T02:10:44;98681.00;;;5.60
19666;BMP180;9980;51.020;7.772;2024-01-30T02:13:12;98680.00;;;5.60
19666;BMP180;9980;51.020;7.772;2024-01-30T02:15:39;98661.00;;;5.60
19666;BMP180;9980;51.020;7.772;2024-01-30T02:18:05;98678.00;;;5.60
19666;BMP180;9980;51.020;7.772;2024-01-30T02:20:35;98674.00;;;5.50
19666;BMP180;9980;51.020;7.772;2024-01-30T02:23:02;98680.00;;;5.50
19666;BMP180;9980;51.020;7.772;2024-01-30T02:25:33;98675.00;;;5.50
19666;BMP180;9980;51.020;7.772;2024-01-30T02:28:00;98656.00;;;5.50
19666;BMP180;9980;51.020;7.772;2024-01-30T02:30:27;98669.00;;;5.50
19666;BMP180;9980;51.020;7.772;2024-01-30T02:32:54;98662.00;;;5.50
19666;BMP180;9980;51.020;7.772;2024-01-30T02:35:21;98675.00;;;5.50
19666;BMP180;9980;51.020;7.772;2024-01-30T02:37:48;98666.00;;;5.50
19666;BMP180;9980;51.020;7.772;2024-01-30T02:40:15;98655.00;;;5.50
19666;BMP180;9980;51.020;7.772;2024-01-30T02:42:42;98659.00;;;5.40
19666;BMP180;9980;51.020;7.772;2024-01-30T02:45:10;98649.00;;;5.40
19666;BMP180;9980;51.020;7.772;2024-01-30T02:47:37;98661.00;;;5.40
19666;BMP180;9980;51.020;7.772;2024-01-30T02:50:04;98667.00;;;5.40
19666;BMP180;9980;51.020;7.772;2024-01-30T02:52:31;98664.00;;;5.40
19666;BMP180;9980;51.020;7.772;2024-01-30T02:54:58;98652.00;;;5.40
19666;BMP180;9980;51.020;7.772;2024-01-30T02:57:25;98645.00;;;5.40
19666;BMP180;9980;51.020;7.772;2024-01-30T02:59:52;98653.00;;;5.40
19666;BMP180;9980;51.020;7.772;2024-01-30T03:02:19;98651.00;;;5.40
19666;BMP180;9980;51.020;7.772;2024-01-30T03:04:46;98649.00;;;5.40
19666;BMP180;9980;51.020;7.772;2024-01-30T03:07:13;98648.00;;;5.40
19666;BMP180;9980;51.020;7.772;2024-01-30T03:09:42;98634.00;;;5.40
19666;BMP180;9980;51.020;7.772;2024-01-30T03:12:11;98631.00;;;5.30
19666;BMP180;9980;51.020;7.772;2024-01-30T03:14:38;98633.00;;;5.30
19666;BMP180;9980;51.020;7.772;2024-01-30T03:17:05;98624.00;;;5.30
19666;BMP180;9980;51.020;7.772;2024-01-30T03:19:32;98641.00;;;5.30
19666;BMP180;9980;51.020;7.772;2024-01-30T03:21:59;98625.00;;;5.30
19666;BMP180;9980;51.020;7.772;2024-01-30T03:24:26;98629.00;;;5.30
19666;BMP180;9980;51.020;7.772;2024-01-30T03:26:53;98634.00;;;5.30
19666;BMP180;9980;51.020;7.772;2024-01-30T03:29:20;98627.00;;;5.30
19666;BMP180;9980;51.020;7.772;2024-01-30T03:31:47;98628.00;;;5.30
19666;BMP180;9980;51.020;7.772;2024-01-30T03:34:14;98619.00;;;5.30
19666;BMP180;9980;51.020;7.772;2024-01-30T03:36:41;98622.00;;;5.30
19666;BMP180;9980;51.020;7.772;2024-01-30T03:39:08;98624.00;;;5.30
19666;BMP180;9980;51.020;7.772;2024-01-30T03:41:35;98628.00;;;5.30
19666;BMP180;9980;51.020;7.772;2024-01-30T03:44:02;98625.00;;;5.20
19666;BMP180;9980;51.020;7.772;2024-01-30T03:46:29;98615.00;;;5.20
19666;BMP180;9980;51.020;7.772;2024-01-30T03:48:56;98614.00;;;5.20
19666;BMP180;9980;51.020;7.772;2024-01-30T03:51:23;98623.00;;;5.20
19666;BMP180;9980;51.020;7.772;2024-01-30T03:53:50;98621.00;;;5.20
19666;BMP180;9980;51.020;7.772;2024-01-30T03:56:16;98616.00;;;5.20
19666;BMP180;9980;51.020;7.772;2024-01-30T03:58:43;98612.00;;;5.20
19666;BMP180;9980;51.020;7.772;2024-01-30T04:01:14;98619.00;;;5.20
19666;BMP180;9980;51.020;7.772;2024-01-30T04:03:42;98626.00;;;5.20
19666;BMP180;9980;51.020;7.772;2024-01-30T04:06:10;98614.00;;;5.20
19666;BMP180;9980;51.020;7.772;2024-01-30T04:08:38;98619.00;;;5.20
19666;BMP180;9980;51.020;7.772;2024-01-30T04:11:05;98610.00;;;5.20
19666;BMP180;9980;51.020;7.772;2024-01-30T04:13:33;98618.00;;;5.20
19666;BMP180;9980;51.020;7.772;2024-01-30T04:16:00;98619.00;;;5.20
19666;BMP180;9980;51.020;7.772;2024-01-30T04:18:30;98613.00;;;5.10
19666;BMP180;9980;51.020;7.772;2024-01-30T04:20:57;98613.00;;;5.10
19666;BMP180;9980;51.020;7.772;2024-01-30T04:23:24;98619.00;;;5.10
19666;BMP180;9980;51.020;7.772;2024-01-30T04:25:51;98607.00;;;5.10
19666;BMP180;9980;51.020;7.772;2024-01-30T04:28:18;98621.00;;;5.10
19666;BMP180;9980;51.020;7.772;2024-01-30T04:30:45;98621.00;;;5.10
19666;BMP180;9980;51.020;7.772;2024-01-30T04:33:12;98607.00;;;5.10
19666;BMP180;9980;51.020;7.772;2024-01-30T04:35:39;98610.00;;;5.10
19666;BMP180;9980;51.020;7.772;2024-01-30T04:38:06;98615.00;;;5.10
19666;BMP180;9980;51.020;7.772;2024-01-30T04:40:33;98607.00;;;5.00
19666;BMP180;9980;51.020;7.772;2024-01-30T04:43:00;98620.00;;;5.00
19666;BMP180;9980;51.020;7.772;2024-01-30T04:45:27;98580.00;;;5.00
19666;BMP180;9980;51.020;7.772;2024-01-30T04:47:54;98614.00;;;5.00
19666;BMP180;9980;51.020;7.772;2024-01-30T04:50:21;98609.00;;;5.00
19666;BMP180;9980;51.020;7.772;2024-01-30T04:52:48;98599.00;;;5.00
19666;BMP180;9980;51.020;7.772;2024-01-30T04:55:14;98595.00;;;4.90
19666;BMP180;9980;51.020;7.772;2024-01-30T04:57:41;98597.00;;;4.90
19666;BMP180;9980;51.020;7.772;2024-01-30T05:00:09;98592.00;;;4.90
19666;BMP180;9980;51.020;7.772;2024-01-30T05:02:36;98594.00;;;4.90
19666;BMP180;9980;51.020;7.772;2024-01-30T05:05:03;98594.00;;;4.90
19666;BMP180;9980;51.020;7.772;2024-01-30T05:07:31;98581.00;;;4.90
19666;BMP180;9980;51.020;7.772;2024-01-30T05:09:58;98598.00;;;4.80
19666;BMP180;9980;51.020;7.772;2024-01-30T05:12:26;98592.00;;;4.90
19666;BMP180;9980;51.020;7.772;2024-01-30T05:14:53;98593.00;;;4.80
19666;BMP180;9980;51.020;7.772;2024-01-30T05:17:20;98591.00;;;4.80
19666;BMP180;9980;51.020;7.772;2024-01-30T05:19:47;98610.00;;;4.80
19666;BMP180;9980;51.020;7.772;2024-01-30T05:22:14;98607.00;;;4.80
19666;BMP180;9980;51.020;7.772;2024-01-30T05:24:42;98593.00;;;4.80
19666;BMP180;9980;51.020;7.772;2024-01-30T05:27:09;98585.00;;;4.80
19666;BMP180;9980;51.020;7.772;2024-01-30T05:29:36;98592.00;;;4.80
19666;BMP180;9980;51.020;7.772;2024-01-30T05:32:03;98599.00;;;4.80
19666;BMP180;9980;51.020;7.772;2024-01-30T05:34:32;98597.00;;;4.70
19666;BMP180;9980;51.020;7.772;2024-01-30T05:36:59;98595.00;;;4.70
19666;BMP180;9980;51.020;7.772;2024-01-30T05:39:26;98584.00;;;4.70
19666;BMP180;9980;51.020;7.772;2024-01-30T05:41:53;98590.00;;;4.70
19666;BMP180;9980;51.020;7.772;2024-01-30T05:44:20;98586.00;;;4.70
19666;BMP180;9980;51.020;7.772;2024-01-30T05:46:47;98579.00;;;4.70
19666;BMP180;9980;51.020;7.772;2024-01-30T05:49:14;98580.00;;;4.70
19666;BMP180;9980;51.020;7.772;2024-01-30T05:51:41;98597.00;;;4.60
19666;BMP180;9980;51.020;7.772;2024-01-30T05:54:08;98584.00;;;4.60
19666;BMP180;9980;51.020;7.772;2024-01-30T05:56:35;98596.00;;;4.60
19666;BMP180;9980;51.020;7.772;2024-01-30T05:59:02;98593.00;;;4.60
19666;BMP180;9980;51.020;7.772;2024-01-30T06:01:29;98588.00;;;4.60
19666;BMP180;9980;51.020;7.772;2024-01-30T06:03:56;98596.00;;;4.60
19666;BMP180;9980;51.020;7.772;2024-01-30T06:06:23;98586.00;;;4.60
19666;BMP180;9980;51.020;7.772;2024-01-30T06:08:50;98589.00;;;4.50
19666;BMP180;9980;51.020;7.772;2024-01-30T06:11:17;98586.00;;;4.50
19666;BMP180;9980;51.020;7.772;2024-01-30T06:13:45;98605.00;;;4.50
19666;BMP180;9980;51.020;7.772;2024-01-30T06:16:12;98587.00;;;4.50
19666;BMP180;9980;51.020;7.772;2024-01-30T06:18:39;98587.00;;;4.50
19666;BMP180;9980;51.020;7.772;2024-01-30T06:21:06;98587.00;;;4.50
19666;BMP180;9980;51.020;7.772;2024-01-30T06:23:36;98597.00;;;4.50
19666;BMP180;9980;51.020;7.772;2024-01-30T06:26:02;98599.00;;;4.40
19666;BMP180;9980;51.020;7.772;2024-01-30T06:28:30;98601.00;;;4.40
19666;BMP180;9980;51.020;7.772;2024-01-30T06:30:56;98600.00;;;4.40
19666;BMP180;9980;51.020;7.772;2024-01-30T06:33:24;98578.00;;;4.40
19666;BMP180;9980;51.020;7.772;2024-01-30T06:35:51;98589.00;;;4.40
19666;BMP180;9980;51.020;7.772;2024-01-30T06:38:18;98602.00;;;4.40
19666;BMP180;9980;51.020;7.772;2024-01-30T06:40:45;98586.00;;;4.40
19666;BMP180;9980;51.020;7.772;2024-01-30T06:43:12;98586.00;;;4.40
19666;BMP180;9980;51.020;7.772;2024-01-30T06:45:39;98602.00;;;4.40
19666;BMP180;9980;51.020;7.772;2024-01-30T06:48:08;98591.00;;;4.40
19666;BMP180;9980;51.020;7.772;2024-01-30T06:50:35;98594.00;;;4.40
19666;BMP180;9980;51.020;7.772;2024-01-30T06:53:02;98600.00;;;4.40
19666;BMP180;9980;51.020;7.772;2024-01-30T06:55:29;98603.00;;;4.40
19666;BMP180;9980;51.020;7.772;2024-01-30T06:57:56;98603.00;;;4.40
19666;BMP180;9980;51.020;7.772;2024-01-30T07:00:22;98595.00;;;4.40
19666;BMP180;9980;51.020;7.772;2024-01-30T07:02:50;98577.00;;;4.30
19666;BMP180;9980;51.020;7.772;2024-01-30T07:05:17;98586.00;;;4.30
19666;BMP180;9980;51.020;7.772;2024-01-30T07:07:44;98584.00;;;4.40
19666;BMP180;9980;51.020;7.772;2024-01-30T07:10:11;98600.00;;;4.30
19666;BMP180;9980;51.020;7.772;2024-01-30T07:12:38;98597.00;;;4.40
19666;BMP180;9980;51.020;7.772;2024-01-30T07:15:05;98599.00;;;4.40
19666;BMP180;9980;51.020;7.772;2024-01-30T07:17:35;98607.00;;;4.40
19666;BMP180;9980;51.020;7.772;2024-01-30T07:20:03;98603.00;;;4.40
19666;BMP180;9980;51.020;7.772;2024-01-30T07:22:33;98595.00;;;4.40
19666;BMP180;9980;51.020;7.772;2024-01-30T07:25:00;98594.00;;;4.40
19666;BMP180;9980;51.020;7.772;2024-01-30T07:27:27;98600.00;;;4.40
19666;BMP180;9980;51.020;7.772;2024-01-30T07:29:54;98596.00;;;4.40
19666;BMP180;9980;51.020;7.772;2024-01-30T07:32:21;98595.00;;;4.50
19666;BMP180;9980;51.020;7.772;2024-01-30T07:34:48;98596.00;;;4.50
19666;BMP180;9980;51.020;7.772;2024-01-30T07:37:32;98601.00;;;4.50
19666;BMP180;9980;51.020;7.772;2024-01-30T07:40:01;98603.00;;;4.50
19666;BMP180;9980;51.020;7.772;2024-01-30T07:42:28;98595.00;;;4.50
19666;BMP180;9980;51.020;7.772;2024-01-30T07:44:55;98606.00;;;4.50
19666;BMP180;9980;51.020;7.772;2024-01-30T07:47:22;98590.00;;;4.50
19666;BMP180;9980;51.020;7.772;2024-01-30T07:49:49;98595.00;;;4.60
19666;BMP180;9980;51.020;7.772;2024-01-30T07:52:16;98591.00;;;4.60
19666;BMP180;9980;51.020;7.772;2024-01-30T07:54:43;98592.00;;;4.60
19666;BMP180;9980;51.020;7.772;2024-01-30T07:57:10;98615.00;;;4.70
19666;BMP180;9980;51.020;7.772;2024-01-30T07:59:37;98622.00;;;4.70
19666;BMP180;9980;51.020;7.772;2024-01-30T08:02:04;98606.00;;;4.70
19666;BMP180;9980;51.020;7.772;2024-01-30T08:04:31;98594.00;;;4.70
19666;BMP180;9980;51.020;7.772;2024-01-30T08:06:58;98604.00;;;4.80
19666;BMP180;9980;51.020;7.772;2024-01-30T08:09:25;98598.00;;;4.80
19666;BMP180;9980;51.020;7.772;2024-01-30T08:11:52;98593.00;;;4.90
19666;BMP180;9980;51.020;7.772;2024-01-30T08:14:19;98598.00;;;4.90
19666;BMP180;9980;51.020;7.772;2024-01-30T08:16:46;98609.00;;;4.90
19666;BMP180;9980;51.020;7.772;2024-01-30T08:19:15;98613.00;;;5.00
19666;BMP180;9980;51.020;7.772;2024-01-30T08:21:42;98621.00;;;5.10
19666;BMP180;9980;51.020;7.772;2024-01-30T08:24:09;98622.00;;;5.10
19666;BMP180;9980;51.020;7.772;2024-01-30T08:26:36;98617.00;;;5.20
19666;BMP180;9980;51.020;7.772;2024-01-30T08:29:03;98615.00;;;5.20
19666;BMP180;9980;51.020;7.772;2024-01-30T08:31:30;98609.00;;;5.30
19666;BMP180;9980;51.020;7.772;2024-01-30T08:33:57;98619.00;;;5.30
19666;BMP180;9980;51.020;7.772;2024-01-30T08:36:25;98624.00;;;5.40
19666;BMP180;9980;51.020;7.772;2024-01-30T08:38:52;98628.00;;;5.50
19666;BMP180;9980;51.020;7.772;2024-01-30T08:41:26;98634.00;;;5.60
19666;BMP180;9980;51.020;7.772;2024-01-30T08:43:53;98624.00;;;5.60
19666;BMP180;9980;51.020;7.772;2024-01-30T08:46:20;98628.00;;;5.70
19666;BMP180;9980;51.020;7.772;2024-01-30T08:48:47;98615.00;;;5.80
19666;BMP180;9980;51.020;7.772;2024-01-30T08:51:14;98619.00;;;5.90
19666;BMP180;9980;51.020;7.772;2024-01-30T08:53:42;98622.00;;;5.90
19666;BMP180;9980;51.020;7.772;2024-01-30T08:56:09;98612.00;;;6.00
19666;BMP180;9980;51.020;7.772;2024-01-30T08:58:36;98611.00;;;6.10
19666;BMP180;9980;51.020;7.772;2024-01-30T09:01:03;98620.00;;;6.20
19666;BMP180;9980;51.020;7.772;2024-01-30T09:03:32;98613.00;;;6.30
19666;BMP180;9980;51.020;7.772;2024-01-30T09:05:59;98611.00;;;6.40
19666;BMP180;9980;51.020;7.772;2024-01-30T09:08:26;98605.00;;;6.50
19666;BMP180;9980;51.020;7.772;2024-01-30T09:10:53;98604.00;;;6.60
19666;BMP180;9980;51.020;7.772;2024-01-30T09:13:20;98606.00;;;6.70
19666;BMP180;9980;51.020;7.772;2024-01-30T09:15:47;98601.00;;;6.80
19666;BMP180;9980;51.020;7.772;2024-01-30T09:18:14;98608.00;;;7.00
19666;BMP180;9980;51.020;7.772;2024-01-30T09:20:41;98599.00;;;7.10
19666;BMP180;9980;51.020;7.772;2024-01-30T09:23:08;98597.00;;;7.20
19666;BMP180;9980;51.020;7.772;2024-01-30T09:25:34;98607.00;;;7.30
19666;BMP180;9980;51.020;7.772;2024-01-30T09:28:01;98587.00;;;7.50
19666;BMP180;9980;51.020;7.772;2024-01-30T09:30:28;98600.00;;;7.60
19666;BMP180;9980;51.020;7.772;2024-01-30T09:32:55;98607.00;;;7.70
19666;BMP180;9980;51.020;7.772;2024-01-30T09:35:22;98618.00;;;7.80
19666;BMP180;9980;51.020;7.772;2024-01-30T09:37:49;98612.00;;;7.90
19666;BMP180;9980;51.020;7.772;2024-01-30T09:40:18;98617.00;;;8.10
19666;BMP180;9980;51.020;7.772;2024-01-30T09:42:47;98615.00;;;8.20
19666;BMP180;9980;51.020;7.772;2024-01-30T09:45:24;98629.00;;;8.30
19666;BMP180;9980;51.020;7.772;2024-01-30T09:47:52;98631.00;;;8.40
19666;BMP180;9980;51.020;7.772;2024-01-30T09:50:20;98623.00;;;8.50
19666;BMP180;9980;51.020;7.772;2024-01-30T09:52:48;98627.00;;;8.60
19666;BMP180;9980;51.020;7.772;2024-01-30T09:55:15;98641.00;;;8.70
19666;BMP180;9980;51.020;7.772;2024-01-30T09:57:42;98630.00;;;8.80
19666;BMP180;9980;51.020;7.772;2024-01-30T10:00:10;98629.00;;;8.90
19666;BMP180;9980;51.020;7.772;2024-01-30T10:02:40;98648.00;;;9.00
19666;BMP180;9980;51.020;7.772;2024-01-30T10:05:08;98629.00;;;9.20
19666;BMP180;9980;51.020;7.772;2024-01-30T10:07:35;98631.00;;;9.30
19666;BMP180;9980;51.020;7.772;2024-01-30T10:10:05;98632.00;;;9.40
19666;BMP180;9980;51.020;7.772;2024-01-30T10:12:32;98630.00;;;9.50
19666;BMP180;9980;51.020;7.772;2024-01-30T10:14:59;98641.00;;;9.70
19666;BMP180;9980;51.020;7.772;2024-01-30T10:17:26;98634.00;;;9.80
19666;BMP180;9980;51.020;7.772;2024-01-30T10:20:00;98631.00;;;9.90
19666;BMP180;9980;51.020;7.772;2024-01-30T10:22:31;98628.00;;;10.00
19666;BMP180;9980;51.020;7.772;2024-01-30T10:25:00;98638.00;;;10.10
19666;BMP180;9980;51.020;7.772;2024-01-30T10:27:32;98621.00;;;10.20
19666;BMP180;9980;51.020;7.772;2024-01-30T10:29:59;98631.00;;;10.30
19666;BMP180;9980;51.020;7.772;2024-01-30T10:32:27;98631.00;;;10.40
19666;BMP180;9980;51.020;7.772;2024-01-30T10:34:54;98612.00;;;10.50
19666;BMP180;9980;51.020;7.772;2024-01-30T10:37:25;98627.00;;;10.60
19666;BMP180;9980;51.020;7.772;2024-01-30T10:39:55;98628.00;;;10.70
19666;BMP180;9980;51.020;7.772;2024-01-30T10:42:26;98629.00;;;10.80
19666;BMP180;9980;51.020;7.772;2024-01-30T10:45:05;98640.00;;;10.80
19666;BMP180;9980;51.020;7.772;2024-01-30T10:47:35;98625.00;;;10.90
19666;BMP180;9980;51.020;7.772;2024-01-30T10:50:07;98629.00;;;11.00
19666;BMP180;9980;51.020;7.772;2024-01-30T10:52:35;98630.00;;;11.10
19666;BMP180;9980;51.020;7.772;2024-01-30T10:55:04;98632.00;;;11.20
19666;BMP180;9980;51.020;7.772;2024-01-30T10:57:35;98627.00;;;11.20
19666;BMP180;9980;51.020;7.772;2024-01-30T11:00:09;98637.00;;;11.30
19666;BMP180;9980;51.020;7.772;2024-01-30T11:02:40;98635.00;;;11.40
19666;BMP180;9980;51.020;7.772;2024-01-30T11:05:08;98635.00;;;11.50
19666;BMP180;9980;51.020;7.772;2024-01-30T11:07:35;98630.00;;;11.50
19666;BMP180;9980;51.020;7.772;2024-01-30T11:10:04;98641.00;;;11.60
19666;BMP180;9980;51.020;7.772;2024-01-30T11:12:33;98641.00;;;11.70
19666;BMP180;9980;51.020;7.772;2024-01-30T11:15:08;98626.00;;;11.70
19666;BMP180;9980;51.020;7.772;2024-01-30T11:20:31;98618.00;;;11.90
19666;BMP180;9980;51.020;7.772;2024-01-30T11:22:59;98614.00;;;12.00
19666;BMP180;9980;51.020;7.772;2024-01-30T11:25:31;98612.00;;;12.10
19666;BMP180;9980;51.020;7.772;2024-01-30T11:27:58;98613.00;;;12.20
19666;BMP180;9980;51.020;7.772;2024-01-30T11:30:31;98624.00;;;12.30
19666;BMP180;9980;51.020;7.772;2024-01-30T11:33:07;98607.00;;;12.30
19666;BMP180;9980;51.020;7.772;2024-01-30T11:35:43;98609.00;;;12.40
19666;BMP180;9980;51.020;7.772;2024-01-30T11:38:14;98607.00;;;12.50
19666;BMP180;9980;51.020;7.772;2024-01-30T11:40:41;98611.00;;;12.60
19666;BMP180;9980;51.020;7.772;2024-01-30T11:43:10;98600.00;;;12.70
19666;BMP180;9980;51.020;7.772;2024-01-30T11:45:38;98609.00;;;12.80
19666;BMP180;9980;51.020;7.772;2024-01-30T11:48:07;98602.00;;;12.90
19666;BMP180;9980;51.020;7.772;2024-01-30T11:50:39;98589.00;;;13.00
19666;BMP180;9980;51.020;7.772;2024-01-30T11:53:07;98591.00;;;13.00
19666;BMP180;9980;51.020;7.772;2024-01-30T11:55:34;98585.00;;;13.10
19666;BMP180;9980;51.020;7.772;2024-01-30T11:58:04;98593.00;;;13.20
19666;BMP180;9980;51.020;7.772;2024-01-30T12:00:31;98593.00;;;13.30
19666;BMP180;9980;51.020;7.772;2024-01-30T12:03:00;98596.00;;;13.40
19666;BMP180;9980;51.020;7.772;2024-01-30T12:05:28;98594.00;;;13.40
19666;BMP180;9980;51.020;7.772;2024-01-30T12:07:55;98576.00;;;13.50
19666;BMP180;9980;51.020;7.772;2024-01-30T12:10:26;98590.00;;;13.50
19666;BMP180;9980;51.020;7.772;2024-01-30T12:12:54;98595.00;;;13.60
19666;BMP180;9980;51.020;7.772;2024-01-30T12:15:22;98580.00;;;13.60
19666;BMP180;9980;51.020;7.772;2024-01-30T12:17:49;98591.00;;;13.70
19666;BMP180;9980;51.020;7.772;2024-01-30T12:20:20;98591.00;;;13.70
19666;BMP180;9980;51.020;7.772;2024-01-30T12:22:49;98583.00;;;13.70
19666;BMP180;9980;51.020;7.772;2024-01-30T12:25:20;98589.00;;;13.80
19666;BMP180;9980;51.020;7.772;2024-01-30T12:27:50;98593.00;;;13.80
19666;BMP180;9980;51.020;7.772;2024-01-30T12:30:20;98582.00;;;13.80
19666;BMP180;9980;51.020;7.772;2024-01-30T12:32:50;98585.00;;;13.90
19666;BMP180;9980;51.020;7.772;2024-01-30T12:35:20;98591.00;;;13.90
19666;BMP180;9980;51.020;7.772;2024-01-30T12:37:49;98590.00;;;13.90
19666;BMP180;9980;51.020;7.772;2024-01-30T12:40:17;98586.00;;;13.90
19666;BMP180;9980;51.020;7.772;2024-01-30T12:42:47;98598.00;;;14.00
19666;BMP180;9980;51.020;7.772;2024-01-30T12:45:17;98578.00;;;14.00
19666;BMP180;9980;51.020;7.772;2024-01-30T12:47:50;98587.00;;;14.00
19666;BMP180;9980;51.020;7.772;2024-01-30T12:50:17;98593.00;;;14.00
19666;BMP180;9980;51.020;7.772;2024-01-30T12:52:45;98585.00;;;14.10
19666;BMP180;9980;51.020;7.772;2024-01-30T12:55:16;98580.00;;;14.10
19666;BMP180;9980;51.020;7.772;2024-01-30T12:57:44;98584.00;;;14.20
19666;BMP180;9980;51.020;7.772;2024-01-30T13:00:11;98577.00;;;14.20
19666;BMP180;9980;51.020;7.772;2024-01-30T13:02:38;98595.00;;;14.30
19666;BMP180;9980;51.020;7.772;2024-01-30T13:05:06;98595.00;;;14.30
19666;BMP180;9980;51.020;7.772;2024-01-30T13:07:34;98588.00;;;14.40
19666;BMP180;9980;51.020;7.772;2024-01-30T13:10:02;98598.00;;;14.50
19666;BMP180;9980;51.020;7.772;2024-01-30T13:12:31;98600.00;;;14.50
19666;BMP180;9980;51.020;7.772;2024-01-30T13:15:00;98604.00;;;14.60
19666;BMP180;9980;51.020;7.772;2024-01-30T13:17:28;98602.00;;;14.60
19666;BMP180;9980;51.020;7.772;2024-01-30T13:19:55;98595.00;;;14.60
19666;BMP180;9980;51.020;7.772;2024-01-30T13:22:28;98591.00;;;14.70
19666;BMP180;9980;51.020;7.772;2024-01-30T13:24:55;98592.00;;;14.70
19666;BMP180;9980;51.020;7.772;2024-01-30T13:27:22;98593.00;;;14.70
19666;BMP180;9980;51.020;7.772;2024-01-30T13:29:49;98600.00;;;14.80
19666;BMP180;9980;51.020;7.772;2024-01-30T13:32:16;98599.00;;;14.80
19666;BMP180;9980;51.020;7.772;2024-01-30T13:34:43;98606.00;;;14.80
19666;BMP180;9980;51.020;7.772;2024-01-30T13:37:10;98610.00;;;14.90
19666;BMP180;9980;51.020;7.772;2024-01-30T13:39:37;98605.00;;;14.90
19666;BMP180;9980;51.020;7.772;2024-01-30T13:42:06;98597.00;;;14.90
19666;BMP180;9980;51.020;7.772;2024-01-30T13:44:32;98617.00;;;14.90
19666;BMP180;9980;51.020;7.772;2024-01-30T13:46:59;98606.00;;;14.90
19666;BMP180;9980;51.020;7.772;2024-01-30T13:49:26;98594.00;;;14.90
19666;BMP180;9980;51.020;7.772;2024-01-30T13:51:55;98609.00;;;15.00
19666;BMP180;9980;51.020;7.772;2024-01-30T13:54:24;98603.00;;;15.00
19666;BMP180;9980;51.020;7.772;2024-01-30T13:56:51;98615.00;;;15.00
19666;BMP180;9980;51.020;7.772;2024-01-30T13:59:18;98598.00;;;15.00
19666;BMP180;9980;51.020;7.772;2024-01-30T14:01:50;98619.00;;;15.00
19666;BMP180;9980;51.020;7.772;2024-01-30T14:04:17;98606.00;;;15.00
19666;BMP180;9980;51.020;7.772;2024-01-30T14:06:44;98607.00;;;15.00
19666;BMP180;9980;51.020;7.772;2024-01-30T14:09:22;98614.00;;;15.00
19666;BMP180;9980;51.020;7.772;2024-01-30T14:11:49;98617.00;;;15.00
19666;BMP180;9980;51.020;7.772;2024-01-30T14:14:17;98618.00;;;15.00
19666;BMP180;9980;51.020;7.772;2024-01-30T14:16:43;98616.00;;;15.00
19666;BMP180;9980;51.020;7.772;2024-01-30T14:19:10;98620.00;;;15.00
19666;BMP180;9980;51.020;7.772;2024-01-30T14:21:37;98625.00;;;15.00
19666;BMP180;9980;51.020;7.772;2024-01-30T14:24:06;98639.00;;;15.00
19666;BMP180;9980;51.020;7.772;2024-01-30T14:26:33;98635.00;;;15.00
19666;BMP180;9980;51.020;7.772;2024-01-30T14:29:01;98638.00;;;15.00
19666;BMP180;9980;51.020;7.772;2024-01-30T14:31:27;98642.00;;;15.00
19666;BMP180;9980;51.020;7.772;2024-01-30T14:33:55;98637.00;;;14.90
19666;BMP180;9980;51.020;7.772;2024-01-30T14:36:22;98635.00;;;14.90